createdAt,value
2023-05-05T00:00:55.472Z,12.44
2023-05-05T00:03:22.540Z,12.52
2023-05-05T00:05:49.768Z,12.66
2023-05-05T00:08:16.631Z,12.59
2023-05-05T00:10:47.237Z,12.54
2023-05-05T00:13:14.421Z,12.40
2023-05-05T00:15:41.951Z,12.65
2023-05-05T00:18:08.779Z,12.55
2023-05-05T00:20:35.365Z,12.44
2023-05-05T00:23:01.936Z,12.58
2023-05-05T00:25:29.304Z,12.62
2023-05-05T00:27:56.096Z,12.41
2023-05-05T00:30:22.855Z,12.60
2023-05-05T00:32:49.905Z,12.49
2023-05-05T00:35:18.938Z,12.58
2023-05-05T00:37:45.722Z,12.50
2023-05-05T00:40:12.579Z,12.33
2023-05-05T00:42:46.054Z,12.26
2023-05-05T00:45:14.618Z,12.34
2023-05-05T00:48:00.386Z,12.37
2023-05-05T00:50:31.523Z,12.52
2023-05-05T00:53:03.431Z,12.43
2023-05-05T00:55:30.456Z,12.41
2023-05-05T00:58:01.672Z,12.43
2023-05-05T01:00:28.471Z,12.45
2023-05-05T01:02:55.394Z,12.07
2023-05-05T01:05:23.693Z,12.31
2023-05-05T01:08:12.340Z,12.03
2023-05-05T01:10:38.956Z,12.05
2023-05-05T01:13:12.335Z,11.76
2023-05-05T01:15:59.323Z,11.70
2023-05-05T01:18:35.271Z,11.79
2023-05-05T01:21:05.927Z,12.10
2023-05-05T01:23:43.356Z,11.97
2023-05-05T01:26:10.033Z,11.87
2023-05-05T01:28:51.926Z,11.83
2023-05-05T01:31:26.518Z,11.80
2023-05-05T01:33:58.240Z,11.64
2023-05-05T01:36:28.640Z,11.30
2023-05-05T01:38:59.105Z,11.30
2023-05-05T01:41:28.426Z,11.26
2023-05-05T01:43:56.492Z,11.43
2023-05-05T01:46:24.653Z,11.47
2023-05-05T01:48:53.425Z,11.55
2023-05-05T01:51:22.696Z,11.30
2023-05-05T01:53:50.320Z,11.66
2023-05-05T01:56:17.375Z,11.77
2023-05-05T01:58:45.052Z,11.44
2023-05-05T02:01:12.592Z,11.61
2023-05-05T02:03:39.661Z,11.41
2023-05-05T02:06:07.507Z,11.63
2023-05-05T02:08:36.056Z,11.45
2023-05-05T02:11:03.792Z,11.31
2023-05-05T02:13:32.541Z,11.41
2023-05-05T02:15:59.901Z,11.53
2023-05-05T02:18:28.463Z,11.41
2023-05-05T02:20:55.607Z,11.61
2023-05-05T02:23:22.338Z,11.60
2023-05-05T02:25:50.623Z,11.39
2023-05-05T02:28:20.434Z,11.63
2023-05-05T02:30:54.404Z,11.31
2023-05-05T02:33:21.405Z,11.33
2023-05-05T02:35:52.160Z,11.39
2023-05-05T02:38:24.025Z,11.27
2023-05-05T02:40:52.274Z,11.20
2023-05-05T02:43:22.464Z,11.39
2023-05-05T02:45:49.185Z,11.29
2023-05-05T02:48:17.060Z,11.26
2023-05-05T02:50:43.688Z,11.14
2023-05-05T02:53:33.315Z,11.43
2023-05-05T02:56:06.348Z,11.43
2023-05-05T02:58:43.255Z,11.38
2023-05-05T03:01:12.467Z,11.02
2023-05-05T03:03:44.965Z,11.38
2023-05-05T03:06:18.917Z,11.25
2023-05-05T03:08:55.635Z,10.76
2023-05-05T03:11:36.319Z,11.05
2023-05-05T03:14:08.732Z,11.09
2023-05-05T03:16:36.576Z,11.11
2023-05-05T03:19:05.500Z,10.79
2023-05-05T03:21:35.699Z,10.92
2023-05-05T03:24:11.312Z,11.11
2023-05-05T03:26:39.220Z,11.02
2023-05-05T03:29:07.309Z,11.01
2023-05-05T03:31:37.770Z,11.00
2023-05-05T03:34:04.693Z,11.04
2023-05-05T03:36:37.481Z,11.27
2023-05-05T03:39:04.969Z,11.21
2023-05-05T03:41:34.122Z,11.01
2023-05-05T03:44:00.827Z,11.22
2023-05-05T03:46:27.461Z,11.24
2023-05-05T03:48:57.153Z,11.20
2023-05-05T03:51:25.269Z,11.12
2023-05-05T03:53:51.833Z,11.37
2023-05-05T03:56:21.643Z,11.11
2023-05-05T03:58:48.270Z,11.03
2023-05-05T04:01:15.001Z,10.90
2023-05-05T04:03:41.684Z,11.02
2023-05-05T04:06:10.929Z,10.91
2023-05-05T04:08:37.855Z,10.99
2023-05-05T04:11:05.449Z,11.07
2023-05-05T04:13:33.857Z,11.00
2023-05-05T04:16:03.124Z,10.96
2023-05-05T04:18:33.158Z,11.00
2023-05-05T04:21:00.033Z,11.24
2023-05-05T04:23:26.687Z,11.29
2023-05-05T04:25:53.646Z,11.17
2023-05-05T04:28:23.499Z,11.28
2023-05-05T04:30:50.136Z,11.54
2023-05-05T04:33:17.066Z,11.56
2023-05-05T04:35:45.955Z,11.50
2023-05-05T04:38:12.616Z,11.67
2023-05-05T04:40:42.831Z,11.63
2023-05-05T04:43:10.783Z,11.71
2023-05-05T04:45:37.346Z,11.56
2023-05-05T04:48:06.406Z,11.57
2023-05-05T04:50:33.037Z,11.83
2023-05-05T04:52:59.826Z,11.71
2023-05-05T04:55:26.731Z,11.73
2023-05-05T04:57:53.801Z,12.01
2023-05-05T05:00:20.336Z,12.04
2023-05-05T05:02:47.397Z,11.60
2023-05-05T05:05:14.073Z,11.97
2023-05-05T05:07:40.858Z,11.77
2023-05-05T05:10:10.248Z,11.89
2023-05-05T05:12:37.156Z,11.95
2023-05-05T05:15:06.437Z,11.77
2023-05-05T05:17:33.075Z,11.83
2023-05-05T05:20:04.735Z,11.83
2023-05-05T05:22:34.819Z,12.03
2023-05-05T05:25:09.853Z,12.05
2023-05-05T05:27:36.843Z,12.14
2023-05-05T05:30:03.672Z,12.06
2023-05-05T05:32:32.221Z,12.34
2023-05-05T05:34:59.037Z,12.66
2023-05-05T05:37:33.874Z,12.27
2023-05-05T05:40:01.252Z,12.49
2023-05-05T05:42:31.088Z,12.40
2023-05-05T05:44:58.798Z,12.22
2023-05-05T05:47:25.863Z,12.37
2023-05-05T05:49:52.549Z,12.39
2023-05-05T05:52:20.018Z,12.42
2023-05-05T05:54:46.734Z,12.70
2023-05-05T05:57:13.362Z,13.01
2023-05-05T05:59:40.293Z,13.14
2023-05-05T06:02:07.943Z,13.01
2023-05-05T06:04:34.769Z,13.31
2023-05-05T06:07:01.506Z,13.31
2023-05-05T06:09:28.259Z,13.36
2023-05-05T06:11:58.587Z,13.13
2023-05-05T06:14:25.313Z,12.99
2023-05-05T06:16:52.831Z,13.30
2023-05-05T06:19:21.813Z,13.24
2023-05-05T06:21:49.009Z,13.41
2023-05-05T06:24:15.643Z,13.62
2023-05-05T06:26:42.652Z,13.70
2023-05-05T06:29:10.501Z,13.90
2023-05-05T06:31:38.899Z,14.11
2023-05-05T06:34:05.452Z,14.15
2023-05-05T06:36:32.508Z,14.26
2023-05-05T06:38:59.105Z,14.28
2023-05-05T06:41:25.970Z,14.30
2023-05-05T06:43:52.526Z,14.46
2023-05-05T06:46:19.195Z,14.90
2023-05-05T06:48:48.225Z,14.90
2023-05-05T06:51:18.031Z,14.69
2023-05-05T06:53:44.717Z,14.82
2023-05-05T06:56:11.621Z,14.62
2023-05-05T06:58:38.218Z,15.10
2023-05-05T07:01:05.264Z,14.93
2023-05-05T07:03:31.934Z,15.16
2023-05-05T07:05:58.484Z,15.30
2023-05-05T07:08:25.498Z,15.30
2023-05-05T07:10:54.590Z,15.32
2023-05-05T07:13:21.400Z,15.61
2023-05-05T07:15:50.510Z,15.55
2023-05-05T07:18:17.265Z,15.66
2023-05-05T07:20:44.544Z,15.77
2023-05-05T07:23:11.380Z,16.09
2023-05-05T07:25:38.116Z,16.62
2023-05-05T07:28:05.058Z,16.76
2023-05-05T07:30:31.643Z,17.00
2023-05-05T07:33:00.511Z,17.14
2023-05-05T07:35:27.804Z,17.05
2023-05-05T07:37:54.500Z,17.21
2023-05-05T07:40:21.115Z,17.09
2023-05-05T07:42:47.683Z,17.36
2023-05-05T07:45:16.185Z,17.43
2023-05-05T07:47:42.817Z,17.53
2023-05-05T07:50:11.798Z,17.63
2023-05-05T07:52:49.628Z,17.71
2023-05-05T07:55:27.735Z,18.03
2023-05-05T07:57:54.408Z,18.20
2023-05-05T08:00:27.065Z,17.89
2023-05-05T08:02:53.730Z,17.91
2023-05-05T08:05:20.398Z,18.09
2023-05-05T08:07:47.024Z,18.23
2023-05-05T08:10:15.925Z,18.37
2023-05-05T08:12:42.703Z,18.33
2023-05-05T08:15:09.577Z,18.55
2023-05-05T08:17:47.469Z,18.38
2023-05-05T08:20:14.867Z,18.72
2023-05-05T08:22:42.396Z,19.04
2023-05-05T08:25:11.151Z,19.00
2023-05-05T08:27:38.257Z,18.89
2023-05-05T08:30:05.200Z,19.00
2023-05-05T08:32:32.179Z,19.07
2023-05-05T08:34:58.810Z,19.56
2023-05-05T08:37:25.320Z,19.79
2023-05-05T08:39:51.945Z,19.79
2023-05-05T08:42:32.770Z,20.06
2023-05-05T08:45:03.457Z,20.21
2023-05-05T08:47:31.545Z,20.57
2023-05-05T08:49:59.155Z,20.59
2023-05-05T08:52:27.733Z,20.49
2023-05-05T08:54:56.301Z,20.75
2023-05-05T08:57:32.457Z,20.28
2023-05-05T08:59:59.956Z,20.44
2023-05-05T09:02:35.827Z,20.60
2023-05-05T09:05:07.471Z,20.86
2023-05-05T09:07:37.157Z,20.73
2023-05-05T09:10:04.798Z,20.85
2023-05-05T09:12:31.947Z,21.18
2023-05-05T09:15:05.229Z,20.54
2023-05-05T09:17:32.468Z,21.03
2023-05-05T09:20:04.447Z,21.44
2023-05-05T09:22:36.115Z,21.46
2023-05-05T09:25:03.132Z,21.24
2023-05-05T09:27:29.710Z,20.97
2023-05-05T09:29:56.625Z,21.34
2023-05-05T09:32:23.372Z,21.35
2023-05-05T09:35:00.179Z,21.54
2023-05-05T09:37:28.495Z,21.65
2023-05-05T09:39:55.651Z,21.57
2023-05-05T09:42:22.468Z,21.82
2023-05-05T09:44:49.056Z,21.95
2023-05-05T09:47:28.467Z,22.17
2023-05-05T09:50:02.555Z,22.16
2023-05-05T09:52:30.355Z,21.91
2023-05-05T09:54:57.416Z,22.04
2023-05-05T09:57:33.798Z,22.16
2023-05-05T10:00:01.665Z,22.15
2023-05-05T10:02:33.445Z,22.27
2023-05-05T10:05:14.126Z,22.81
2023-05-05T10:07:41.811Z,23.34
2023-05-05T10:10:17.258Z,23.02
2023-05-05T10:12:45.964Z,22.77
2023-05-05T10:15:13.785Z,22.64
2023-05-05T10:18:05.072Z,23.36
2023-05-05T10:20:33.557Z,23.42
2023-05-05T10:23:02.785Z,23.13
2023-05-05T10:25:32.902Z,23.08
2023-05-05T10:28:03.117Z,23.10
2023-05-05T10:30:31.371Z,23.13
2023-05-05T10:33:12.255Z,23.47
2023-05-05T10:35:50.036Z,23.69
2023-05-05T10:38:17.374Z,23.80
2023-05-05T10:40:51.053Z,23.87
2023-05-05T10:43:17.942Z,23.67
2023-05-05T10:45:45.066Z,23.37
2023-05-05T10:48:14.199Z,23.59
2023-05-05T10:50:49.412Z,23.74
2023-05-05T10:53:22.017Z,23.92
2023-05-05T10:55:56.807Z,24.27
2023-05-05T10:58:50.972Z,24.75
2023-05-05T11:01:34.247Z,24.01
2023-05-05T11:04:19.805Z,24.44
2023-05-05T11:07:21.094Z,24.36
2023-05-05T11:09:55.089Z,24.03
2023-05-05T11:12:24.127Z,24.12
2023-05-05T11:15:09.710Z,23.85
2023-05-05T11:17:50.857Z,24.09
2023-05-05T11:20:17.645Z,24.16
2023-05-05T11:23:03.264Z,23.98
2023-05-05T11:25:42.077Z,23.64
2023-05-05T11:28:18.832Z,22.98
2023-05-05T11:30:57.817Z,23.16
2023-05-05T11:33:33.620Z,22.87
2023-05-05T11:36:06.163Z,22.83
2023-05-05T11:38:38.564Z,22.88
2023-05-05T11:41:12.344Z,22.49
2023-05-05T11:43:39.760Z,22.62
2023-05-05T11:46:09.845Z,22.55
2023-05-05T11:48:49.418Z,22.66
2023-05-05T11:51:22.399Z,22.62
2023-05-05T11:53:49.780Z,22.77
2023-05-05T11:56:21.858Z,22.93
2023-05-05T11:58:48.947Z,22.84
2023-05-05T12:01:15.799Z,22.82
2023-05-05T12:03:43.422Z,22.91
2023-05-05T12:06:10.222Z,22.55
2023-05-05T12:08:37.449Z,22.78
2023-05-05T12:11:05.157Z,22.90
2023-05-05T12:13:31.750Z,22.98
2023-05-05T12:16:08.185Z,22.90
2023-05-05T12:18:34.944Z,22.94
2023-05-05T12:21:01.509Z,23.01
2023-05-05T12:23:30.152Z,22.97
2023-05-05T12:25:56.667Z,22.83
2023-05-05T12:28:23.306Z,23.01
2023-05-05T12:30:59.494Z,22.77
2023-05-05T12:33:26.169Z,22.52
2023-05-05T12:35:52.729Z,22.61
2023-05-05T12:38:19.414Z,22.74
2023-05-05T12:40:49.994Z,22.71
2023-05-05T12:43:23.422Z,22.65
2023-05-05T12:46:01.126Z,22.68
2023-05-05T12:48:30.248Z,22.85
2023-05-05T12:51:10.017Z,22.61
2023-05-05T12:53:36.677Z,22.89
2023-05-05T12:56:03.263Z,22.87
2023-05-05T12:58:51.073Z,23.19
2023-05-05T13:01:17.717Z,23.03
2023-05-05T13:03:44.777Z,23.02
2023-05-05T13:06:26.158Z,22.99
2023-05-05T13:08:52.726Z,22.96
2023-05-05T13:11:19.276Z,23.00
2023-05-05T13:13:46.277Z,22.93
2023-05-05T13:16:12.832Z,22.85
2023-05-05T13:18:46.166Z,22.97
2023-05-05T13:21:12.942Z,23.08
2023-05-05T13:23:42.590Z,22.80
2023-05-05T13:26:09.172Z,22.90
2023-05-05T13:28:35.824Z,22.62
2023-05-05T13:31:04.793Z,22.72
2023-05-05T13:33:40.431Z,22.58
2023-05-05T13:36:07.121Z,22.61
2023-05-05T13:38:36.045Z,22.04
2023-05-05T13:41:06.306Z,22.23
2023-05-05T13:43:35.871Z,22.11
2023-05-05T13:46:16.083Z,22.35
2023-05-05T13:48:46.649Z,22.11
2023-05-05T13:51:13.190Z,22.48
2023-05-05T13:53:43.730Z,22.13
2023-05-05T13:56:10.594Z,22.53
2023-05-05T13:58:37.965Z,22.28
2023-05-05T14:01:04.791Z,22.33
2023-05-05T14:03:31.454Z,22.20
2023-05-05T14:05:58.078Z,22.16
2023-05-05T14:08:24.676Z,21.96
2023-05-05T14:10:53.585Z,22.18
2023-05-05T14:13:20.143Z,22.10
2023-05-05T14:15:50.255Z,22.11
2023-05-05T14:18:16.925Z,22.19
2023-05-05T14:20:43.667Z,22.06
2023-05-05T14:23:10.263Z,22.10
2023-05-05T14:25:36.855Z,22.19
2023-05-05T14:30:44.667Z,21.84
2023-05-05T14:33:11.228Z,22.16
2023-05-05T14:35:37.934Z,21.94
2023-05-05T14:38:04.589Z,22.04
2023-05-05T14:40:33.434Z,22.12
2023-05-05T14:43:00.224Z,22.08
2023-05-05T14:45:29.589Z,22.03
2023-05-05T14:47:56.240Z,22.05
2023-05-05T14:50:22.934Z,21.80
2023-05-05T14:52:49.487Z,22.01
2023-05-05T14:55:18.479Z,21.78
2023-05-05T14:57:45.036Z,21.87
2023-05-05T15:00:11.982Z,21.93
2023-05-05T15:02:39.779Z,22.17
2023-05-05T15:05:09.560Z,22.14
2023-05-05T15:07:36.408Z,22.25
2023-05-05T15:10:02.933Z,22.29
2023-05-05T15:12:31.888Z,22.05
2023-05-05T15:15:00.776Z,22.44
2023-05-05T15:17:27.411Z,22.35
2023-05-05T15:19:54.060Z,22.55
2023-05-05T15:22:20.713Z,22.34
2023-05-05T15:24:50.119Z,22.20
2023-05-05T15:27:18.313Z,22.25
2023-05-05T15:29:52.460Z,22.47
2023-05-05T15:32:19.073Z,22.55
2023-05-05T15:34:46.491Z,22.45
2023-05-05T15:37:15.961Z,22.24
2023-05-05T15:39:42.475Z,22.56
2023-05-05T15:42:12.296Z,22.55
2023-05-05T15:44:38.972Z,22.47
2023-05-05T15:47:06.547Z,22.29
2023-05-05T15:49:35.452Z,22.19
2023-05-05T15:52:02.110Z,22.01
2023-05-05T15:54:31.305Z,21.81
2023-05-05T15:57:00.247Z,21.74
2023-05-05T15:59:26.841Z,21.87
2023-05-05T16:01:53.978Z,21.98
2023-05-05T16:04:20.627Z,21.83
2023-05-05T16:06:47.127Z,21.87
2023-05-05T16:09:13.697Z,21.72
2023-05-05T16:11:40.275Z,21.65
2023-05-05T16:14:09.200Z,21.58
2023-05-05T16:16:37.799Z,21.63
2023-05-05T16:19:04.608Z,21.64
2023-05-05T16:21:31.505Z,21.56
2023-05-05T16:23:58.100Z,21.58
2023-05-05T16:26:24.894Z,21.50
2023-05-05T16:28:52.271Z,21.61
2023-05-05T16:31:19.038Z,21.42
2023-05-05T16:33:45.839Z,21.47
2023-05-05T16:36:12.670Z,21.38
2023-05-05T16:38:39.732Z,21.33
2023-05-05T16:41:12.073Z,21.21
2023-05-05T16:43:38.704Z,21.13
2023-05-05T16:46:08.417Z,21.17
2023-05-05T16:48:35.149Z,21.10
2023-05-05T16:51:01.693Z,21.19
2023-05-05T16:53:28.302Z,20.88
2023-05-05T16:55:54.943Z,21.12
2023-05-05T16:58:22.861Z,21.17
2023-05-05T17:00:49.768Z,21.13
2023-05-05T17:03:17.140Z,20.97
2023-05-05T17:05:44.220Z,20.90
2023-05-05T17:08:14.518Z,20.95
2023-05-05T17:10:44.033Z,20.79
2023-05-05T17:13:11.120Z,20.61
2023-05-05T17:15:38.082Z,20.69
2023-05-05T17:18:05.288Z,20.38
2023-05-05T17:20:32.124Z,20.41
2023-05-05T17:22:58.713Z,20.32
2023-05-05T17:25:28.268Z,20.38
2023-05-05T17:27:55.569Z,20.38
2023-05-05T17:30:22.215Z,20.37
2023-05-05T17:32:48.943Z,20.43
2023-05-05T17:35:15.521Z,20.40
2023-05-05T17:37:42.248Z,20.01
2023-05-05T17:40:08.942Z,20.25
2023-05-05T17:42:39.036Z,20.31
2023-05-05T17:45:06.611Z,20.27
2023-05-05T17:47:34.495Z,20.19
2023-05-05T17:50:11.248Z,20.04
2023-05-05T17:52:38.057Z,19.98
2023-05-05T17:55:04.713Z,19.75
2023-05-05T17:57:31.263Z,19.50
2023-05-05T17:59:57.811Z,19.50
2023-05-05T18:02:24.921Z,19.42
2023-05-05T18:04:51.479Z,19.19
2023-05-05T18:07:18.064Z,18.81
2023-05-05T18:09:44.710Z,18.83
2023-05-05T18:12:11.296Z,18.69
2023-05-05T18:14:43.656Z,18.63
2023-05-05T18:17:15.438Z,18.48
2023-05-05T18:19:43.467Z,18.52
2023-05-05T18:22:12.554Z,18.41
2023-05-05T18:24:39.322Z,18.35
2023-05-05T18:27:06.472Z,17.92
2023-05-05T18:29:35.100Z,17.34
2023-05-05T18:32:01.838Z,16.92
2023-05-05T18:34:29.561Z,16.62
2023-05-05T18:36:57.112Z,16.65
2023-05-05T18:39:23.877Z,16.55
2023-05-05T18:41:50.525Z,16.56
2023-05-05T18:44:18.005Z,16.49
2023-05-05T18:46:46.828Z,16.53
2023-05-05T18:49:13.560Z,16.88
2023-05-05T18:51:40.383Z,16.85
2023-05-05T18:54:07.193Z,16.95
2023-05-05T18:56:33.759Z,17.06
2023-05-05T18:59:00.426Z,17.34
2023-05-05T19:01:28.378Z,17.24
2023-05-05T19:03:55.022Z,16.60
2023-05-05T19:06:21.608Z,16.30
2023-05-05T19:08:48.186Z,16.58
2023-05-05T19:11:15.614Z,16.90
2023-05-05T19:13:42.491Z,16.86
2023-05-05T19:16:14.722Z,16.76
2023-05-05T19:18:43.525Z,16.51
2023-05-05T19:21:10.088Z,16.53
2023-05-05T19:23:38.104Z,16.40
2023-05-05T19:26:08.165Z,16.50
2023-05-05T19:28:34.872Z,16.59
2023-05-05T19:31:01.512Z,16.72
2023-05-05T19:33:29.508Z,16.57
2023-05-05T19:35:56.973Z,16.58
2023-05-05T19:38:23.657Z,16.63
2023-05-05T19:40:50.500Z,16.94
2023-05-05T19:43:17.052Z,17.16
2023-05-05T19:45:44.396Z,17.18
2023-05-05T19:48:12.565Z,17.14
2023-05-05T19:50:39.232Z,17.22
2023-05-05T19:53:05.886Z,16.97
2023-05-05T19:55:33.221Z,16.88
2023-05-05T19:57:59.903Z,16.66
2023-05-05T20:00:26.462Z,16.45
2023-05-05T20:02:53.210Z,16.17
2023-05-05T20:05:19.847Z,16.25
2023-05-05T20:07:47.022Z,16.66
2023-05-05T20:10:13.827Z,16.76
2023-05-05T20:12:42.498Z,16.85
2023-05-05T20:15:09.764Z,16.47
2023-05-05T20:17:36.399Z,16.20
2023-05-05T20:20:03.011Z,16.20
2023-05-05T20:22:30.871Z,16.51
2023-05-05T20:24:58.211Z,16.35
2023-05-05T20:27:26.584Z,16.31
2023-05-05T20:29:53.884Z,16.37
2023-05-05T20:32:20.701Z,16.33
2023-05-05T20:34:48.145Z,16.38
2023-05-05T20:37:14.909Z,16.23
2023-05-05T20:39:43.742Z,15.98
2023-05-05T20:42:10.902Z,15.88
2023-05-05T20:44:37.723Z,16.20
2023-05-05T20:47:04.637Z,16.35
2023-05-05T20:49:31.336Z,16.30
2023-05-05T20:51:58.370Z,15.84
2023-05-05T20:54:24.966Z,16.05
2023-05-05T20:56:53.105Z,16.08
2023-05-05T20:59:19.621Z,15.85
2023-05-05T21:01:46.261Z,15.94
2023-05-05T21:04:12.804Z,15.74
2023-05-05T21:06:41.764Z,15.92
2023-05-05T21:09:08.409Z,15.93
2023-05-05T21:11:37.585Z,16.07
2023-05-05T21:14:04.557Z,16.30
2023-05-05T21:16:31.290Z,16.31
2023-05-05T21:18:59.158Z,16.58
2023-05-05T21:21:25.749Z,16.72
2023-05-05T21:23:55.645Z,16.85
2023-05-05T21:26:24.870Z,16.50
2023-05-05T21:28:51.929Z,16.53
2023-05-05T21:31:22.159Z,16.57
2023-05-05T21:33:49.460Z,16.04
2023-05-05T21:36:17.616Z,16.24
2023-05-05T21:38:45.906Z,16.09
2023-05-05T21:41:12.512Z,15.73
2023-05-05T21:43:39.095Z,16.23
2023-05-05T21:46:05.905Z,15.86
2023-05-05T21:48:32.680Z,15.88
2023-05-05T21:50:59.291Z,16.06
2023-05-05T21:53:26.023Z,16.08
2023-05-05T21:55:52.560Z,15.53
2023-05-05T21:58:19.129Z,15.23
2023-05-05T22:00:48.452Z,15.28
2023-05-05T22:03:15.879Z,15.11
2023-05-05T22:05:42.486Z,15.03
2023-05-05T22:08:11.184Z,15.12
2023-05-05T22:10:39.193Z,15.10
2023-05-05T22:13:06.287Z,15.22
2023-05-05T22:15:45.872Z,15.15
2023-05-05T22:18:13.633Z,15.17
2023-05-05T22:20:41.128Z,15.73
2023-05-05T22:23:08.044Z,15.43
2023-05-05T22:25:35.270Z,15.50
2023-05-05T22:28:02.616Z,16.05
2023-05-05T22:30:29.150Z,15.97
2023-05-05T22:32:55.831Z,16.08
2023-05-05T22:35:22.476Z,16.07
2023-05-05T22:37:49.125Z,15.87
2023-05-05T22:40:15.689Z,16.12
2023-05-05T22:42:42.435Z,16.18
2023-05-05T22:45:09.666Z,16.34
2023-05-05T22:47:36.771Z,16.17
2023-05-05T22:50:03.472Z,15.99
2023-05-05T22:52:30.069Z,15.71
2023-05-05T22:54:56.592Z,16.24
2023-05-05T22:57:23.351Z,16.25
2023-05-05T22:59:50.267Z,16.43
2023-05-05T23:02:16.900Z,16.37
2023-05-05T23:04:44.906Z,15.83
2023-05-05T23:07:12.442Z,15.92
2023-05-05T23:09:39.109Z,15.82
2023-05-05T23:12:05.795Z,15.43
2023-05-05T23:14:32.327Z,15.23
2023-05-05T23:16:59.037Z,15.38
2023-05-05T23:19:26.319Z,15.26
2023-05-05T23:21:56.108Z,15.46
2023-05-05T23:24:22.734Z,15.50
2023-05-05T23:26:52.594Z,15.34
2023-05-05T23:29:22.173Z,15.73
2023-05-05T23:31:48.748Z,15.76
2023-05-05T23:34:17.765Z,15.70
2023-05-05T23:36:44.404Z,15.75
2023-05-05T23:39:11.450Z,15.29
2023-05-05T23:41:38.115Z,15.66
2023-05-05T23:44:04.702Z,15.31
2023-05-05T23:46:33.092Z,15.11
2023-05-05T23:48:59.709Z,15.18
2023-05-05T23:51:27.295Z,15.09
2023-05-05T23:53:53.869Z,15.32
2023-05-05T23:56:20.466Z,15.30
2023-05-05T23:58:47.088Z,15.32
